Flight Track Log - Related Links

Times and Time Zones

All times are in EDT time to prevent confusion due to time zone crossing. See the AAY891 flight status page for this flight to view local times or setup timezone preferences in your user account.

Time Position Orientation Groundspeed Altitude Reporting Facility
EDT Latitude Longitude Course Direction KTS MPH feet Rate Location/Type
Mon 07:18:43 PM 40.9189 -85.1381 143° Southeast 202 232 3,800  Level Chicago Center
Mon 07:19:45 PM 40.8606 -85.0936 150° Southeast 228 262 5,700 2,274 Climbing Chicago Center
Mon 07:20:47 PM 40.7972 -85.0372 146° Southeast 264 304 8,500 2,516 Climbing Chicago Center
Mon 07:21:49 PM 40.7169 -84.9706 148° Southeast 280 322 10,900 1,632 Climbing Chicago Center
Mon 07:22:52 PM 40.6406 -84.9078 148° Southeast 331 381 11,900 1,163 Climbing Chicago Center
Mon 07:23:00 PM 40.8690 -85.1704 150° Southeast  Level Estimated
Mon 07:23:27 PM 40.5906 -84.8664 148° Southeast 364 419 12,800  Level Indianapolis Center
Mon 07:24:00 PM 40.8690 -85.1704 143° Southeast  Level Estimated
Mon 07:24:29 PM 40.4925 -84.7858 148° Southeast 403 464 15,400  Level Indianapolis Center
Mon 07:25:30 PM 40.3792 -84.6936 148° Southeast 405 466 17,900 1,854 Climbing Indianapolis Center
Mon 07:26:32 PM 40.2767 -84.6097 148° Southeast 422 486 19,200 1,512 Climbing Indianapolis Center
Mon 07:27:33 PM 40.1664 -84.5203 148° Southeast 454 522 21,000 1,512 Climbing Indianapolis Center
Mon 07:28:35 PM 40.0578 -84.4311 148° Southeast 459 528 22,300 1,306 Climbing Indianapolis Center
Mon 07:29:37 PM 39.9308 -84.3928 167° South 476 548 23,700 1,317 Climbing Indianapolis Center
Mon 07:30:38 PM 39.8006 -84.3856 178° South 474 545 25,000 1,610 Climbing Indianapolis Center
Mon 07:31:40 PM 39.6442 -84.3753 177° South 474 545 27,000 1,610 Climbing Indianapolis Center
Mon 07:32:41 PM 39.5161 -84.3658 177° South 469 540 28,300 1,463 Climbing Indianapolis Center
Mon 07:33:43 PM 39.3869 -84.3578 177° South 469 540 30,000 1,306 Climbing Indianapolis Center
Mon 07:34:45 PM 39.2622 -84.3494 177° South 459 528 31,000 488 Climbing Indianapolis Center
Mon 07:35:46 PM 39.1450 -84.3417 177° South 437 503 31,000  Level Indianapolis Center
Mon 07:36:48 PM 39.0250 -84.3347 177° South 434 499 31,000  Level Indianapolis Center
Mon 07:37:50 PM 38.9033 -84.3283 178° South 434 499 31,000  Level Indianapolis Center
Mon 07:38:51 PM 38.7592 -84.3181 177° South 434 499 31,000  Level Indianapolis Center
Mon 07:39:53 PM 38.6411 -84.3094 177° South 434 499 31,000  Level Indianapolis Center
Mon 07:40:55 PM 38.5192 -84.2914 173° South 435 501 31,000  Level Indianapolis Center
Mon 07:41:56 PM 38.3967 -84.2711 173° South 439 505 31,000  Level Indianapolis Center
Mon 07:42:58 PM 38.2750 -84.2519 173° South 439 505 31,000  Level Indianapolis Center
Mon 07:44:00 PM 38.1333 -84.2292 173° South 439 505 31,000  Level Indianapolis Center
Mon 07:45:01 PM 38.0133 -84.2094 173° South 439 505 31,000  Level Indianapolis Center
Mon 07:46:03 PM 37.8922 -84.1883 172° South 438 504 31,000  Level Indianapolis Center
Mon 07:47:05 PM 37.7678 -84.1717 174° South 442 509 31,000  Level Indianapolis Center
Mon 07:48:06 PM 37.6456 -84.1522 173° South 442 509 31,000  Level Indianapolis Center
Mon 07:49:08 PM 37.5233 -84.1331 173° South 442 509 31,000  Level Indianapolis Center
Mon 07:50:10 PM 37.4017 -84.1153 173° South 442 509 31,000  Level Indianapolis Center
Mon 07:51:11 PM 37.2597 -84.0950 174° South 442 509 31,000  Level Indianapolis Center
Mon 07:52:13 PM 37.1392 -84.0769 173° South 439 505 31,000  Level Indianapolis Center
Mon 07:53:15 PM 37.0183 -84.0586 173° South 439 505 31,000  Level Indianapolis Center
Mon 07:54:16 PM 36.8964 -84.0411 173° South 439 505 31,000  Level Indianapolis Center
Mon 07:55:18 PM 36.7739 -84.0231 173° South 440 506 31,000  Level Indianapolis Center
Mon 07:56:20 PM 36.6536 -84.0050 173° South 440 506 31,000  Level Indianapolis Center
Mon 07:57:22 PM 36.5133 -84.0083 181° South 438 504 31,000  Level Indianapolis Center
Mon 07:58:23 PM 36.4011 -84.0258 187° South 436 502 31,000  Level Indianapolis Center
Mon 07:59:25 PM 36.2806 -84.0447 187° South 436 502 31,000  Level Indianapolis Center
Mon 08:00:27 PM 36.1617 -84.0639 187° South 434 499 31,000  Level Indianapolis Center
Mon 08:00:59 PM 36.0917 -84.0747 187° South 439 505 31,000  Level Atlanta Center
Mon 08:01:59 PM 35.9728 -84.0953 188° South 439 505 31,000  Level Atlanta Center
Mon 08:02:59 PM 35.8517 -84.1131 187° South 439 505 31,000  Level Atlanta Center
Mon 08:03:59 PM 35.7350 -84.1308 187° South 439 505 31,000  Level Atlanta Center
Mon 08:04:59 PM 35.6139 -84.1486 187° South 439 505 31,000  Level Atlanta Center
Mon 08:05:59 PM 35.4844 -84.1664 186° South 434 499 31,000  Level Atlanta Center
Mon 08:06:59 PM 35.3656 -84.1839 187° South 434 499 31,000  Level Atlanta Center
Mon 08:07:59 PM 35.2467 -84.2017 187° South 434 499 31,000  Level Atlanta Center
Mon 08:08:59 PM 35.1319 -84.2192 187° South 428 493 31,000  Level Atlanta Center
Mon 08:09:59 PM 35.0128 -84.2367 187° South 428 493 31,000  Level Atlanta Center
Mon 08:10:59 PM 34.8961 -84.2514 186° South 428 493 31,000  Level Atlanta Center
Mon 08:11:59 PM 34.7792 -84.2689 187° South 428 493 31,000  Level Atlanta Center
Mon 08:12:59 PM 34.6664 -84.2864 187° South 423 487 31,000  Level Atlanta Center
Mon 08:13:59 PM 34.5475 -84.3036 187° South 423 487 31,000  Level Atlanta Center
Mon 08:14:59 PM 34.4283 -84.3233 188° South 423 487 31,000  Level Atlanta Center
Mon 08:15:59 PM 34.3114 -84.3381 186° South 428 493 31,000  Level Atlanta Center
Mon 08:16:59 PM 34.1903 -84.3553 187° South 428 493 31,000  Level Atlanta Center
Mon 08:17:59 PM 34.0778 -84.3747 188° South 436 502 31,000  Level Atlanta Center
Mon 08:18:59 PM 33.9628 -84.3894 186° South 436 502 31,000  Level Atlanta Center
Mon 08:19:59 PM 33.8458 -84.4064 187° South 441 507 31,000  Level Atlanta Center
Mon 08:20:59 PM 33.7039 -84.4258 187° South 446 513 31,000  Level Atlanta Center
Mon 08:21:59 PM 33.6100 -84.4353 185° South 446 513 31,000  Level Atlanta Center
Mon 08:22:59 PM 33.4783 -84.4347 180° South 440 506 31,000  Level Atlanta Center
Mon 08:23:59 PM 33.3575 -84.4317 179° South 435 501 31,000  Level Atlanta Center
Mon 08:24:59 PM 33.2364 -84.4311 180° South 435 501 31,000  Level Atlanta Center
Mon 08:25:59 PM 33.1153 -84.4281 179° South 435 501 31,000  Level Atlanta Center
Mon 08:26:59 PM 32.9964 -84.4228 178° South 435 501 31,000  Level Atlanta Center
Mon 08:27:59 PM 32.8772 -84.4222 180° South 435 501 31,000  Level Atlanta Center
Mon 08:28:59 PM 32.7458 -84.4217 180° South 435 501 31,000  Level Atlanta Center
Mon 08:29:59 PM 32.6269 -84.4161 178° South 435 501 31,000  Level Atlanta Center
Mon 08:30:59 PM 32.5100 -84.4133 179° South 435 501 31,000  Level Atlanta Center
Mon 08:31:59 PM 32.3911 -84.4103 179° South 435 501 31,000  Level Atlanta Center
Mon 08:32:59 PM 32.2719 -84.4097 180° South 435 501 31,000  Level Atlanta Center
Mon 08:33:59 PM 32.1531 -84.4069 179° South 435 501 31,000  Level Atlanta Center
Mon 08:34:33 PM 32.0844 -84.4056 179° South 431 496 31,000  Level Jacksonville Center
Mon 08:35:33 PM 31.9656 -84.4011 178° South 426 490 31,000  Level Jacksonville Center
Mon 08:36:33 PM 31.8444 -84.3992 179° South 426 490 31,000  Level Jacksonville Center
Mon 08:37:33 PM 31.7256 -84.3972 179° South 426 490 31,000  Level Jacksonville Center
Mon 08:38:33 PM 31.6064 -84.3928 178° South 426 490 31,000  Level Jacksonville Center
Mon 08:39:33 PM 31.4875 -84.3861 177° South 426 490 31,000  Level Jacksonville Center
Mon 08:40:33 PM 31.3836 -84.3431 161° South 432 497 31,000  Level Jacksonville Center
Mon 08:41:33 PM 31.2694 -84.2975 161° South 427 491 31,000  Level Jacksonville Center
Mon 08:42:33 PM 31.1569 -84.2544 162° South 432 497 31,000  Level Jacksonville Center
Mon 08:43:33 PM 31.0447 -84.2092 161° South 432 497 31,000  Level Jacksonville Center
Mon 08:44:33 PM 30.9283 -84.1639 162° South 432 497 31,000  Level Jacksonville Center
Mon 08:45:33 PM 30.8139 -84.1189 161° South 437 503 31,000  Level Jacksonville Center
Mon 08:46:33 PM 30.7017 -84.0717 160° South 437 503 31,000  Level Jacksonville Center
Mon 08:47:33 PM 30.5850 -84.0292 163° South 437 503 31,000 -50 Level Jacksonville Center
Mon 08:48:33 PM 30.4747 -83.9869 162° South 432 497 30,900 -50 Descending Jacksonville Center
Mon 08:49:33 PM 30.3603 -83.9422 161° South 432 497 30,900  Level Jacksonville Center
Mon 08:50:33 PM 30.2481 -83.8978 161° South 432 497 30,900  Level Jacksonville Center
Mon 08:51:33 PM 30.1333 -83.8581 163° South 427 491 30,900  Level Jacksonville Center
Mon 08:52:33 PM 30.0189 -83.8114 161° South 427 491 30,900 50 Level Jacksonville Center
Mon 08:53:33 PM 29.9044 -83.7694 162° South 427 491 31,000  Climbing Jacksonville Center
Mon 08:54:33 PM 29.7919 -83.7256 161° South 427 491 30,900 -50 Descending Jacksonville Center
Mon 08:55:33 PM 29.6817 -83.6814 161° South 427 491 30,900  Level Jacksonville Center
Mon 08:56:34 PM 29.5669 -83.6400 163° South 427 491 30,900  Level Jacksonville Center
Mon 08:57:33 PM 29.4544 -83.5986 162° South 422 486 30,900 -756 Level Jacksonville Center
Mon 08:58:33 PM 29.3442 -83.5547 161° South 422 486 29,400 -1,785 Descending Jacksonville Center
Mon 08:59:34 PM 29.2358 -83.5136 162° South 417 480 27,300 -1,900 Descending Jacksonville Center
Mon 09:00:33 PM 29.1422 -83.4561 152° Southeast 407 468 25,600 -1,664 Descending Jacksonville Center
Mon 09:01:33 PM 29.0483 -83.3983 152° Southeast 385 443 24,000 -1,700 Descending Jacksonville Center
Mon 09:02:33 PM 28.9589 -83.3411 151° Southeast 379 436 22,200 -1,600 Descending Jacksonville Center
Mon 09:03:33 PM 28.8694 -83.2814 150° Southeast 379 436 20,800 -1,450 Descending Jacksonville Center
Mon 09:04:33 PM 28.7819 -83.2267 151° Southeast 366 421 19,300 -1,490 Descending Jacksonville Center
Mon 09:06:10 PM 28.6553 -83.1447 150° Southeast 344 396 16,900 -1,595 Descending Miami Center
Mon 09:07:11 PM 28.5625 -83.0883 152° Southeast 332 382 15,100 -1,672 Descending Miami Center
Mon 09:08:12 PM 28.4850 -83.0406 152° Southeast 320 368 13,500 -1,328 Descending Miami Center
Mon 09:09:13 PM 28.4078 -82.9925 151° Southeast 318 366 12,400 -1,279 Descending Miami Center
Mon 09:10:14 PM 28.3319 -82.9472 152° Southeast 310 357 10,900 -1,426 Descending Miami Center
Mon 09:11:15 PM 28.2617 -82.9042 152° Southeast 294 338 9,500 -1,426 Descending Miami Center
Mon 09:12:16 PM 28.1939 -82.8622 151° Southeast 282 325 8,000 -1,475 Descending Miami Center
Mon 09:13:17 PM 28.1281 -82.8197 150° Southeast 277 319 6,500 -1,180 Descending Miami Center
Mon 09:14:18 PM 28.0644 -82.7922 159° South 261 300 5,600 -934 Descending Miami Center
Mon 09:15:19 PM 28.0028 -82.7933 181° South 241 277 4,600 -934 Descending Miami Center
Mon 09:16:20 PM 27.9339 -82.7956 182° South 222 255 3,700 -927 Descending Miami Center
Mon 09:17:22 PM 27.8792 -82.7961 181° South 210 242 2,700 -976 Descending Miami Center
Mon 09:18:23 PM 27.8456 -82.7597 136° Southeast 194 223 1,700 -787 Descending Miami Center
Mon 09:19:24 PM 27.8308 -82.7106 109° East 177 204 1,100 -492 Descending Miami Center
Mon 09:20:25 PM 27.8558 -82.6794 48° Northeast 163 188 700 -393 Descending Miami Center

Login

Don't have an account? Register now (free) for customized features, flight alerts, and more!